deformed-offering

Nearby METAR Reports

 

KSJC - San Jose, California, USA
Distance from station: NE 9mi, 14km
Updated: Wed, 06-Jul-2022 6:53am PDT
Overcast
Overcast
 Wind from NW
Wind: NW 8 mph , 13 km/h
Temperature: 64°F , 18°C
Dew Point: 54°F , 12°C
Humidity: 68%
Barometer: 29.97 inHg , 1014.9 hPa
Clouds: Overcast
Visibility: 10 miles , 16 km
Cloud details: Overcast 2900 ft
2022/07/06 13:53 KSJC 061353Z 32007KT 10SM OVC029 18/12 A2997 RMK AO2 SLP148 T01830122 $
KPAO - Palo Alto, California, USA
Distance from station: NNW 14mi, 23km
Updated: Tue, 05-Jul-2022 4:47pm PDT
NOT Current
Few Clouds
Few Clouds
 Wind from WNW
Wind: WNW 13 mph , 20 km/h, Gust: 18 mph , 30 km/h
Temperature: 75°F , 24°C
Dew Point: 57°F , 14°C
Humidity: 54%
Barometer: 29.93 inHg , 1013.5 hPa
Clouds: Few Clouds
Visibility: 10 miles , 16 km
Cloud details: Few Clouds 3000 ft
2022/07/05 23:47 KPAO 052347Z 30011G16KT 10SM FEW030 24/14 A2993
 
KSQL - San Carlos Airpo, California, USA
Distance from station: NW 21mi, 34km
Updated: Wed, 06-Jul-2022 6:35am PDT
Overcast
Overcast
 Wind from calm
Wind: Calm
Temperature: 63°F , 17°C
Dew Point: 57°F , 14°C
Humidity: 83%
Barometer: 29.98 inHg , 1015.2 hPa
Clouds: Overcast
Visibility: 10 miles , 16 km
Cloud details: Overcast 2400 ft
2022/07/06 13:35 KSQL 061335Z AUTO 00000KT 10SM OVC024 17/14 A2998 RMK AO2
KWVI - Watsonville, California, USA
Distance from station: SSE 27mi, 44km
Updated: Wed, 06-Jul-2022 6:53am PDT
Overcast
Overcast
 Wind from S
Wind: S 3 mph , 6 km/h
Temperature: 61°F , 16°C
Dew Point: 57°F , 14°C
Humidity: 88%
Barometer: 29.99 inHg , 1015.6 hPa
Clouds: Overcast
Visibility: 10 miles , 16 km
Cloud details: Overcast 1800 ft
2022/07/06 13:53 KWVI 061353Z AUTO 18003KT 10SM OVC018 16/14 A2999 RMK AO2 SLP154 T01560139
 
KHWD - Hayward, California, USA
Distance from station: N 28mi, 44km
Updated: Wed, 06-Jul-2022 5:54am PDT
Overcast
Overcast
 Wind from W
Wind: W 6 mph , 9 km/h
Temperature: 64°F , 18°C
Dew Point: 57°F , 14°C
Humidity: 78%
Barometer: 29.95 inHg , 1014.2 hPa
Clouds: Overcast
Visibility: 10 miles , 16 km
Cloud details: Overcast 3000 ft
2022/07/06 12:54 KHWD 061254Z AUTO 28005KT 10SM OVC030 18/14 A2995 RMK AO2 SLP152 T01780139
KSFO - San Francisco, California, USA
Distance from station: NW 30mi, 49km
Updated: Wed, 06-Jul-2022 5:56am PDT
Overcast
Overcast
 Wind from WNW
Wind: WNW 8 mph , 13 km/h
Temperature: 64°F , 18°C
Dew Point: 55°F , 13°C
Humidity: 73%
Barometer: 29.95 inHg , 1014.2 hPa
Clouds: Overcast
Visibility: 10 miles , 16 km
Cloud details: Few Clouds 700 ft
Few Clouds 2000 ft
Overcast 3200 ft
2022/07/06 12:56 KSFO 061256Z 29007KT 10SM FEW007 FEW020 OVC032 18/13 A2995 RMK AO2 SLP143 T01780133
 
KHAF - Half Moon Bay, California, USA
Distance from station: WNW 31mi, 50km
Updated: Wed, 06-Jul-2022 6:35am PDT
Overcast
Overcast
 Wind from calm
Wind: Calm
Temperature: 59°F , 15°C
Dew Point: 59°F , 15°C
Humidity: 100%
Barometer: 29.98 inHg , 1015.2 hPa
Clouds: Overcast
Visibility: 9 miles , 14 km
Cloud details: Overcast 500 ft
2022/07/06 13:35 KHAF 061335Z AUTO 00000KT 9SM OVC005 15/15 A2998 RMK AO2
KLVK - Livermore, California, USA
Distance from station: NNE 31mi, 51km
Updated: Wed, 06-Jul-2022 6:53am PDT
Overcast
Overcast
 Wind from W
Wind: W 10 mph , 17 km/h
Temperature: 63°F , 17°C
Dew Point: 55°F , 13°C
Humidity: 77%
Barometer: 29.96 inHg , 1014.6 hPa
Clouds: Overcast
Visibility: 10 miles , 16 km
Cloud details: Overcast 2000 ft
2022/07/06 13:53 KLVK 061353Z AUTO 28009KT 10SM OVC020 17/13 A2996 RMK AO2 SLP143 T01720128
 
KOAK - Oakland, California, USA
Distance from station: NNW 33mi, 53km
Updated: Wed, 06-Jul-2022 6:53am PDT
Overcast
Overcast
 Wind from W
Wind: W 8 mph , 13 km/h
Temperature: 63°F , 17°C
Dew Point: 57°F , 14°C
Humidity: 83%
Barometer: 29.98 inHg , 1015.2 hPa
Clouds: Overcast
Visibility: 10 miles , 16 km
Cloud details: Few Clouds 800 ft
Few Clouds 1400 ft
Overcast 3100 ft
2022/07/06 13:53 KOAK 061353Z 27007KT 10SM FEW008 FEW014 OVC031 17/14 A2998 RMK AO2 SLP152 T01720139
KCVH - Hollister Muni, California, USA
Distance from station: SE 42mi, 68km
Updated: Wed, 06-Jul-2022 6:35am PDT
Overcast
Overcast
 Wind from calm
Wind: Calm
Temperature: 61°F , 16°C
Dew Point: 57°F , 14°C
Humidity: 88%
Barometer: 29.99 inHg , 1015.6 hPa
Clouds: Overcast
Visibility: 10 miles , 16 km
Cloud details: Overcast 1700 ft
2022/07/06 13:35 KCVH 061335Z AUTO 00000KT 10SM OVC017 16/14 A2999 RMK A01
 
KSNS - Salinas, California, USA
Distance from station: SSE 48mi, 77km
Updated: Wed, 06-Jul-2022 5:53am PDT
Overcast
Overcast
 Wind from WSW
Wind: WSW 8 mph , 13 km/h
Temperature: 63°F , 17°C
Dew Point: 57°F , 14°C
Humidity: 83%
Barometer: 29.98 inHg , 1015.2 hPa
Clouds: Overcast
Visibility: 10 miles , 16 km
Cloud details: Mostly Cloudy 1700 ft
Overcast 2300 ft
2022/07/06 12:53 KSNS 061253Z 25007KT 10SM BKN017 OVC023 17/14 A2998 RMK AO2 SLP159 T01720139
KMRY - Monterey, California, USA
Distance from station: SSE 49mi, 78km
Updated: Wed, 06-Jul-2022 6:01am PDT
Overcast
Overcast
 Wind from calm
Wind: Calm
Temperature: 63°F , 17°C
Dew Point: 55°F , 13°C
Humidity: 77%
Barometer: 29.99 inHg , 1015.6 hPa
Clouds: Overcast
Visibility: 10 miles , 16 km
Cloud details: Overcast 1600 ft
2022/07/06 13:01 KMRY 061301Z 00000KT 10SM OVC016 17/13 A2999 RMK AO2 T01670133
 
KCCR - Concord, California, USA
Distance from station: N 50mi, 81km
Updated: Wed, 06-Jul-2022 6:53am PDT
Overcast
Overcast
 Wind from SSW
Wind: SSW 7 mph , 11 km/h
Temperature: 64°F , 18°C
Dew Point: 54°F , 12°C
Humidity: 68%
Barometer: 29.96 inHg , 1014.6 hPa
Clouds: Overcast
Visibility: 10 miles , 16 km
Cloud details: Overcast 3000 ft
2022/07/06 13:53 KCCR 061353Z 21006KT 10SM OVC030 18/12 A2996 RMK AO2 SLP133 T0178011
deformed-offering